Fort Providence, Canada
Current Conditions -  °F | °C
As of 7:00 PM on Wednesday 22 Oct 2014 (Local Time) from CYHY Reporting Station
Light Rain Light Rain  
Wind Chill: 29°   Ceiling: 400
Heat Index: 37°   Visibility: 6mi
Dew Point: 37°   Wind: 15mph
Humidity: 100%   Direction: 80°E
Pressure: 29.58"   Gusts: 22mph
Location:  61.37°N, 117.65°W
Report Text: CYHY 230100Z 08013G19KT 6SM -RA VCFG BKN004 OVC007 03/03 A2958 RMK ST6ST2 SLP027
Loading
Personal Weather Stations






























Interactive Weather Map
Tropical Storm Tracking
New forecast layout! Learn more

10-Day Weather Forecast

Advertisements
Track Severe Weather on mobile